createdAt,value
2023-01-23T00:01:47.141Z,6.05
2023-01-23T00:04:17.389Z,6.47
2023-01-23T00:06:44.302Z,6.50
2023-01-23T00:09:11.303Z,5.93
2023-01-23T00:11:40.399Z,6.13
2023-01-23T00:14:07.309Z,6.05
2023-01-23T00:16:34.403Z,5.53
2023-01-23T00:19:01.973Z,5.55
2023-01-23T00:21:30.533Z,5.20
2023-01-23T00:23:59.383Z,5.15
2023-01-23T00:26:32.847Z,6.05
2023-01-23T00:28:59.828Z,5.85
2023-01-23T00:31:33.015Z,6.28
2023-01-23T00:34:07.251Z,6.10
2023-01-23T00:36:38.229Z,5.18
2023-01-23T00:39:08.255Z,5.18
2023-01-23T00:41:35.457Z,5.32
2023-01-23T00:44:02.396Z,5.38
2023-01-23T00:46:29.424Z,4.72
2023-01-23T00:48:58.943Z,5.45
2023-01-23T00:51:28.402Z,5.35
2023-01-23T00:53:55.773Z,5.28
2023-01-23T00:56:23.323Z,4.85
2023-01-23T00:58:50.246Z,5.43
2023-01-23T01:01:17.776Z,5.85
2023-01-23T01:03:45.935Z,5.05
2023-01-23T01:06:13.457Z,5.85
2023-01-23T01:08:40.954Z,5.95
2023-01-23T01:11:08.149Z,5.78
2023-01-23T01:13:35.888Z,5.20
2023-01-23T01:16:03.228Z,5.45
2023-01-23T01:18:30.491Z,5.18
2023-01-23T01:20:57.922Z,6.07
2023-01-23T01:23:25.376Z,5.78
2023-01-23T01:25:58.775Z,5.20
2023-01-23T01:28:27.252Z,5.15
2023-01-23T01:30:59.409Z,5.68
2023-01-23T01:33:29.238Z,4.65
2023-01-23T01:35:58.239Z,4.70
2023-01-23T01:38:28.430Z,4.90
2023-01-23T01:40:57.898Z,5.22
2023-01-23T01:43:27.742Z,4.40
2023-01-23T01:46:24.762Z,4.60
2023-01-23T01:49:10.890Z,4.07
2023-01-23T01:52:05.776Z,4.15
2023-01-23T01:54:35.265Z,4.32
2023-01-23T01:57:06.264Z,4.00
2023-01-23T01:59:51.354Z,4.22
2023-01-23T02:02:28.632Z,4.40
2023-01-23T02:05:11.801Z,3.97
2023-01-23T02:07:58.132Z,4.38
2023-01-23T02:10:27.609Z,4.22
2023-01-23T02:12:54.671Z,4.22
2023-01-23T02:15:22.862Z,4.93
2023-01-23T02:17:53.089Z,5.13
2023-01-23T02:20:24.335Z,3.97
2023-01-23T02:23:38.063Z,4.75
2023-01-23T02:26:13.626Z,4.45
2023-01-23T02:28:45.564Z,4.32
2023-01-23T02:31:14.734Z,4.90
2023-01-23T02:33:47.574Z,4.82
2023-01-23T02:36:17.098Z,4.28
2023-01-23T02:38:59.125Z,4.38
2023-01-23T02:41:34.110Z,4.63
2023-01-23T02:44:10.591Z,4.63
2023-01-23T02:46:39.823Z,4.22
2023-01-23T02:49:09.334Z,4.25
2023-01-23T02:51:36.581Z,4.65
2023-01-23T02:54:04.020Z,4.10
2023-01-23T02:56:31.005Z,4.10
2023-01-23T02:59:16.721Z,4.30
2023-01-23T03:01:43.853Z,4.65
2023-01-23T03:04:10.881Z,4.30
2023-01-23T03:06:37.940Z,4.45
2023-01-23T03:09:15.999Z,4.07
2023-01-23T03:11:45.200Z,3.80
2023-01-23T03:14:21.810Z,4.43
2023-01-23T03:16:51.524Z,3.67
2023-01-23T03:19:24.222Z,3.22
2023-01-23T03:21:52.621Z,3.15
2023-01-23T03:24:21.263Z,3.72
2023-01-23T03:26:49.694Z,3.92
2023-01-23T03:29:42.590Z,3.22
2023-01-23T03:32:11.176Z,3.08
2023-01-23T03:34:38.859Z,3.42
2023-01-23T03:37:07.997Z,2.97
2023-01-23T03:39:53.727Z,2.20
2023-01-23T03:42:21.200Z,1.88
2023-01-23T03:44:48.891Z,2.08
2023-01-23T03:47:15.849Z,1.83
2023-01-23T03:49:42.805Z,1.92
2023-01-23T03:52:09.658Z,1.65
2023-01-23T03:54:38.853Z,2.00
2023-01-23T03:57:05.717Z,1.77
2023-01-23T03:59:34.877Z,1.77
2023-01-23T04:02:04.846Z,1.88
2023-01-23T04:04:33.569Z,1.88
2023-01-23T04:07:03.551Z,1.98
2023-01-23T04:09:30.629Z,1.55
2023-01-23T04:11:59.847Z,1.80
2023-01-23T04:14:30.629Z,1.65
2023-01-23T04:16:59.999Z,2.00
2023-01-23T04:19:26.887Z,2.00
2023-01-23T04:21:56.232Z,2.25
2023-01-23T04:24:25.368Z,1.75
2023-01-23T04:26:52.800Z,2.17
2023-01-23T04:29:19.961Z,2.20
2023-01-23T04:31:46.962Z,2.00
2023-01-23T04:34:14.020Z,1.90
2023-01-23T04:36:41.148Z,2.05
2023-01-23T04:39:08.103Z,2.05
2023-01-23T04:41:37.494Z,2.10
2023-01-23T04:44:22.679Z,2.10
2023-01-23T04:46:55.153Z,1.80
2023-01-23T04:49:27.688Z,1.77
2023-01-23T04:51:57.377Z,2.38
2023-01-23T04:54:24.224Z,1.98
2023-01-23T04:56:51.114Z,2.13
2023-01-23T04:59:20.972Z,1.77
2023-01-23T05:01:48.006Z,2.17
2023-01-23T05:04:17.266Z,2.25
2023-01-23T05:06:44.191Z,2.63
2023-01-23T05:09:11.423Z,2.45
2023-01-23T05:11:38.389Z,2.50
2023-01-23T05:14:09.929Z,2.70
2023-01-23T05:19:06.698Z,2.28
2023-01-23T05:21:33.594Z,2.72
2023-01-23T05:24:00.782Z,3.17
2023-01-23T05:26:32.463Z,3.28
2023-01-23T05:28:59.428Z,3.20
2023-01-23T05:31:30.989Z,3.55
2023-01-23T05:36:24.772Z,3.35
2023-01-23T05:38:55.267Z,3.80
2023-01-23T05:41:24.747Z,3.85
2023-01-23T05:43:52.484Z,4.00
2023-01-23T05:46:19.342Z,4.15
2023-01-23T05:48:51.961Z,3.53
2023-01-23T05:51:23.294Z,3.97
2023-01-23T05:53:52.833Z,3.15
2023-01-23T05:56:19.723Z,3.42
2023-01-23T05:58:47.897Z,3.63
2023-01-23T06:01:14.922Z,3.47
2023-01-23T06:03:42.063Z,3.10
2023-01-23T06:06:11.408Z,3.03
2023-01-23T06:08:38.350Z,3.13
2023-01-23T06:11:05.605Z,3.78
2023-01-23T06:13:32.602Z,3.45
2023-01-23T06:16:02.363Z,3.35
2023-01-23T06:18:29.484Z,3.75
2023-01-23T06:21:01.475Z,3.47
2023-01-23T06:23:29.204Z,3.42
2023-01-23T06:26:03.405Z,3.55
2023-01-23T06:28:30.440Z,3.35
2023-01-23T06:31:02.635Z,3.75
2023-01-23T06:33:30.906Z,3.75
2023-01-23T06:36:03.658Z,3.35
2023-01-23T06:38:31.134Z,3.10
2023-01-23T06:41:00.696Z,3.30
2023-01-23T06:43:30.623Z,3.55
2023-01-23T06:46:00.736Z,3.35
2023-01-23T06:48:27.679Z,3.83
2023-01-23T06:50:54.627Z,4.13
2023-01-23T06:53:21.546Z,3.17
2023-01-23T06:55:51.010Z,3.72
2023-01-23T06:58:17.904Z,3.80
2023-01-23T07:00:48.295Z,3.75
2023-01-23T07:03:17.951Z,3.88
2023-01-23T07:05:44.948Z,3.67
2023-01-23T07:08:15.671Z,3.67
2023-01-23T07:10:42.563Z,3.60
2023-01-23T07:13:14.473Z,3.50
2023-01-23T07:15:41.411Z,3.90
2023-01-23T07:18:10.826Z,4.20
2023-01-23T07:20:40.592Z,3.47
2023-01-23T07:23:09.371Z,3.28
2023-01-23T07:25:36.501Z,3.78
2023-01-23T07:28:06.095Z,3.30
2023-01-23T07:30:34.095Z,3.58
2023-01-23T07:33:01.051Z,4.10
2023-01-23T07:35:28.243Z,3.63
2023-01-23T07:38:00.162Z,3.28
2023-01-23T07:40:30.048Z,3.35
2023-01-23T07:42:57.464Z,3.75
2023-01-23T07:45:24.395Z,3.42
2023-01-23T07:47:51.337Z,3.75
2023-01-23T07:50:20.902Z,3.72
2023-01-23T07:52:48.064Z,3.88
2023-01-23T07:55:15.367Z,3.88
2023-01-23T07:57:42.643Z,4.00
2023-01-23T08:00:10.925Z,4.05
2023-01-23T08:02:40.561Z,3.58
2023-01-23T08:05:10.425Z,3.75
2023-01-23T08:07:39.544Z,3.50
2023-01-23T08:10:08.186Z,3.53
2023-01-23T08:12:37.702Z,3.97
2023-01-23T08:15:06.623Z,4.40
2023-01-23T08:17:33.583Z,3.90
2023-01-23T08:20:00.631Z,4.07
2023-01-23T08:22:29.978Z,4.68
2023-01-23T08:24:56.858Z,4.72
2023-01-23T08:27:23.761Z,5.07
2023-01-23T08:29:50.704Z,4.53
2023-01-23T08:32:17.645Z,5.18
2023-01-23T08:34:44.482Z,4.10
2023-01-23T08:37:11.409Z,3.67
2023-01-23T08:39:40.567Z,4.43
2023-01-23T08:42:07.436Z,3.70
2023-01-23T08:44:34.321Z,3.38
2023-01-23T08:47:04.649Z,3.65
2023-01-23T08:49:31.533Z,3.63
2023-01-23T08:52:00.978Z,3.30
2023-01-23T08:54:27.888Z,3.88
2023-01-23T08:56:56.849Z,3.63
2023-01-23T08:59:26.835Z,3.25
2023-01-23T09:01:53.851Z,3.17
2023-01-23T09:04:20.782Z,3.50
2023-01-23T09:06:47.685Z,3.53
2023-01-23T09:09:17.133Z,3.17
2023-01-23T09:11:44.072Z,3.53
2023-01-23T09:14:13.027Z,3.60
2023-01-23T09:16:40.957Z,3.20
2023-01-23T09:19:12.018Z,3.13
2023-01-23T09:21:39.068Z,3.35
2023-01-23T09:24:08.801Z,3.35
2023-01-23T09:26:38.255Z,3.20
2023-01-23T09:29:05.155Z,3.83
2023-01-23T09:31:36.739Z,3.58
2023-01-23T09:36:42.487Z,3.13
2023-01-23T09:39:14.907Z,3.60
2023-01-23T09:44:36.818Z,3.00
2023-01-23T09:47:12.824Z,3.45
2023-01-23T09:50:07.232Z,3.42
2023-01-23T09:52:42.419Z,3.38
2023-01-23T09:55:41.920Z,3.85
2023-01-23T09:58:37.829Z,2.88
2023-01-23T10:01:05.748Z,3.45
2023-01-23T10:03:34.840Z,3.65
2023-01-23T10:06:23.789Z,3.63
2023-01-23T10:09:05.672Z,3.47
2023-01-23T10:12:08.998Z,3.42
2023-01-23T10:15:19.392Z,3.40
2023-01-23T10:18:22.722Z,3.00
2023-01-23T10:21:09.824Z,3.47
2023-01-23T10:23:45.671Z,3.47
2023-01-23T10:26:21.000Z,3.80
2023-01-23T10:28:48.393Z,3.97
2023-01-23T10:31:41.271Z,4.10
2023-01-23T10:34:21.606Z,4.03
2023-01-23T10:37:25.943Z,3.97
2023-01-23T10:40:38.829Z,3.78
2023-01-23T10:43:21.002Z,3.53
2023-01-23T10:45:50.574Z,4.15
2023-01-23T10:48:52.185Z,4.43
2023-01-23T10:51:34.909Z,3.35
2023-01-23T10:54:31.702Z,4.28
2023-01-23T10:57:26.807Z,3.85
2023-01-23T11:00:04.594Z,4.05
2023-01-23T11:02:37.377Z,3.83
2023-01-23T11:05:52.871Z,3.85
2023-01-23T11:08:32.087Z,4.22
2023-01-23T11:11:26.893Z,4.10
2023-01-23T11:14:26.457Z,4.13
2023-01-23T11:17:17.325Z,4.07
2023-01-23T11:19:48.058Z,4.07
2023-01-23T11:22:39.582Z,3.67
2023-01-23T11:25:29.631Z,4.13
2023-01-23T11:27:59.689Z,4.25
2023-01-23T11:30:47.906Z,4.00
2023-01-23T11:33:55.094Z,4.65
2023-01-23T11:36:48.527Z,4.63
2023-01-23T11:39:39.537Z,4.43
2023-01-23T11:42:13.227Z,4.87
2023-01-23T11:44:46.364Z,3.67
2023-01-23T11:47:18.755Z,4.00
2023-01-23T11:50:09.602Z,3.97
2023-01-23T11:52:57.370Z,4.03
2023-01-23T11:55:34.915Z,4.70
2023-01-23T11:58:17.363Z,3.90
2023-01-23T12:01:13.034Z,3.92
2023-01-23T12:03:49.783Z,4.07
2023-01-23T12:07:00.263Z,4.57
2023-01-23T12:10:00.015Z,4.25
2023-01-23T12:13:28.416Z,4.68
2023-01-23T12:16:06.771Z,3.42
2023-01-23T12:19:07.202Z,3.95
2023-01-23T12:22:17.333Z,4.47
2023-01-23T12:24:56.470Z,4.13
2023-01-23T12:28:04.745Z,3.80
2023-01-23T12:30:40.467Z,3.65
2023-01-23T12:33:48.834Z,4.13
2023-01-23T12:36:44.162Z,3.97
2023-01-23T12:39:33.743Z,4.18
2023-01-23T12:42:07.678Z,4.03
2023-01-23T12:44:41.332Z,4.32
2023-01-23T12:47:22.310Z,4.57
2023-01-23T12:50:01.405Z,4.15
2023-01-23T12:52:48.631Z,3.75
2023-01-23T12:55:27.369Z,4.40
2023-01-23T12:58:08.037Z,4.68
2023-01-23T13:01:03.791Z,4.30
2023-01-23T13:03:46.601Z,4.50
2023-01-23T13:06:57.816Z,4.40
2023-01-23T13:10:17.155Z,4.88
2023-01-23T13:12:46.356Z,4.90
2023-01-23T13:15:39.171Z,4.45
2023-01-23T13:18:47.918Z,4.90
2023-01-23T13:21:33.408Z,5.40
2023-01-23T13:24:50.744Z,4.68
2023-01-23T13:27:57.868Z,4.70
2023-01-23T13:30:31.668Z,4.63
2023-01-23T13:33:07.273Z,5.32
2023-01-23T13:35:39.999Z,4.65
2023-01-23T13:38:40.330Z,4.57
2023-01-23T13:41:14.522Z,4.75
2023-01-23T13:43:53.052Z,4.05
2023-01-23T14:21:56.971Z,4.90
2023-01-23T14:24:32.398Z,5.05
2023-01-23T14:27:08.195Z,4.53
2023-01-23T14:29:38.100Z,4.20
2023-01-23T14:32:07.587Z,4.60
2023-01-23T14:34:41.441Z,4.78
2023-01-23T14:37:11.939Z,5.07
2023-01-23T14:39:40.984Z,5.05
2023-01-23T14:42:26.807Z,5.65
2023-01-23T14:44:58.329Z,4.90
2023-01-23T14:47:48.873Z,4.70
2023-01-23T14:50:26.248Z,4.55
2023-01-23T14:53:12.115Z,4.88
2023-01-23T14:55:45.068Z,4.38
2023-01-23T14:58:26.165Z,4.82
2023-01-23T15:00:54.141Z,4.65
2023-01-23T15:04:07.616Z,4.45
2023-01-23T15:06:36.423Z,4.30
2023-01-23T15:09:16.562Z,4.82
2023-01-23T15:11:49.515Z,4.07
2023-01-23T15:14:36.964Z,4.55
2023-01-23T15:17:13.028Z,4.95
2023-01-23T15:19:50.268Z,4.30
2023-01-23T15:22:21.964Z,5.05
2023-01-23T15:24:51.926Z,5.05
2023-01-23T15:27:34.479Z,4.93
2023-01-23T15:30:44.439Z,4.45
2023-01-23T15:33:29.506Z,3.35
2023-01-23T15:36:26.549Z,3.83
2023-01-23T15:38:55.616Z,3.90
2023-01-23T15:41:46.050Z,4.07
2023-01-23T15:44:15.619Z,4.13
2023-01-23T15:46:47.670Z,3.63
2023-01-23T15:49:24.787Z,3.92
2023-01-23T15:51:57.063Z,3.92
2023-01-23T15:54:33.941Z,4.07
2023-01-23T15:57:07.507Z,3.83
2023-01-23T15:59:36.114Z,3.70
2023-01-23T16:02:03.739Z,3.67
2023-01-23T16:04:33.176Z,3.22
2023-01-23T16:07:06.593Z,3.70
2023-01-23T16:09:38.221Z,3.88
2023-01-23T16:14:32.272Z,3.70
2023-01-23T16:17:15.231Z,4.18
2023-01-23T16:19:43.656Z,3.97
2023-01-23T16:22:30.055Z,4.45
2023-01-23T16:24:58.382Z,4.30
2023-01-23T16:27:27.936Z,3.97
2023-01-23T16:29:56.207Z,3.88
2023-01-23T16:32:23.514Z,3.88
2023-01-23T16:34:53.024Z,3.88
2023-01-23T16:37:22.194Z,4.32
2023-01-23T16:39:49.109Z,4.05
2023-01-23T16:42:24.972Z,4.53
2023-01-23T16:44:52.010Z,4.50
2023-01-23T16:47:19.376Z,4.35
2023-01-23T16:49:53.716Z,4.53
2023-01-23T16:52:25.047Z,4.78
2023-01-23T16:54:55.272Z,4.07
2023-01-23T16:57:22.980Z,4.15
2023-01-23T16:59:50.539Z,3.83
2023-01-23T17:02:29.640Z,4.45
2023-01-23T17:04:56.783Z,4.65
2023-01-23T17:07:23.657Z,4.47
2023-01-23T17:09:53.118Z,4.40
2023-01-23T17:12:28.678Z,4.30
2023-01-23T17:14:56.256Z,4.15
2023-01-23T17:17:45.268Z,4.68
2023-01-23T17:20:14.116Z,4.70
2023-01-23T17:22:43.890Z,4.70
2023-01-23T17:25:20.897Z,3.83
2023-01-23T17:28:00.681Z,3.95
2023-01-23T17:30:37.284Z,4.47
2023-01-23T17:33:06.722Z,4.07
2023-01-23T17:35:37.691Z,4.20
2023-01-23T17:38:11.250Z,4.07
2023-01-23T17:40:38.108Z,3.88
2023-01-23T17:43:10.477Z,4.22
2023-01-23T17:45:41.746Z,4.30
2023-01-23T17:48:18.732Z,4.28
2023-01-23T17:50:48.343Z,5.18
2023-01-23T17:53:17.133Z,4.53
2023-01-23T17:55:51.287Z,5.07
2023-01-23T17:58:19.597Z,4.72
2023-01-23T18:00:53.895Z,4.45
2023-01-23T18:03:23.354Z,4.57
2023-01-23T18:05:50.262Z,4.55
2023-01-23T18:08:24.845Z,4.70
2023-01-23T18:10:55.326Z,4.68
2023-01-23T18:13:46.971Z,4.68
2023-01-23T18:16:28.737Z,4.40
2023-01-23T18:19:24.524Z,4.15
2023-01-23T18:22:01.401Z,4.90
2023-01-23T18:24:32.013Z,5.47
2023-01-23T18:27:24.094Z,4.97
2023-01-23T18:30:15.379Z,4.63
2023-01-23T18:32:47.921Z,4.25
2023-01-23T18:35:23.915Z,5.13
2023-01-23T18:38:34.204Z,4.82
2023-01-23T18:41:24.845Z,4.35
2023-01-23T18:44:07.123Z,4.55
2023-01-23T18:46:39.178Z,4.93
2023-01-23T18:49:06.363Z,4.63
2023-01-23T18:51:54.240Z,4.72
2023-01-23T18:54:35.516Z,4.80
2023-01-23T18:57:37.014Z,4.65
2023-01-23T19:00:27.137Z,4.43
2023-01-23T19:03:07.885Z,5.05
2023-01-23T19:05:37.465Z,4.72
2023-01-23T19:08:24.263Z,4.82
2023-01-23T19:10:54.782Z,4.90
2023-01-23T19:13:35.988Z,5.30
2023-01-23T19:16:30.351Z,4.80
2023-01-23T19:19:21.368Z,5.03
2023-01-23T19:21:48.517Z,4.50
2023-01-23T19:24:19.791Z,4.72
2023-01-23T19:26:54.319Z,5.03
2023-01-23T19:29:24.028Z,4.47
2023-01-23T19:32:04.307Z,4.82
2023-01-23T19:34:35.011Z,5.22
2023-01-23T19:37:02.705Z,5.50
2023-01-23T19:39:29.644Z,4.97
2023-01-23T19:42:01.355Z,4.68
2023-01-23T19:44:30.940Z,5.05
2023-01-23T19:47:00.209Z,5.07
2023-01-23T19:49:27.320Z,5.03
2023-01-23T19:51:56.720Z,5.20
2023-01-23T19:54:25.941Z,4.95
2023-01-23T19:56:52.866Z,5.22
2023-01-23T19:59:23.652Z,4.93
2023-01-23T20:01:53.123Z,5.32
2023-01-23T20:04:22.722Z,5.18
2023-01-23T20:06:52.009Z,5.60
2023-01-23T20:09:22.495Z,5.53
2023-01-23T20:11:52.468Z,5.35
2023-01-23T20:14:19.561Z,5.45
2023-01-23T20:16:46.481Z,5.07
2023-01-23T20:19:19.606Z,5.35
2023-01-23T20:21:48.858Z,5.88
2023-01-23T20:24:16.150Z,5.88
2023-01-23T20:26:44.745Z,5.28
2023-01-23T20:29:12.464Z,5.75
2023-01-23T20:31:39.620Z,5.43
2023-01-23T20:34:09.072Z,5.63
2023-01-23T20:36:38.252Z,5.65
2023-01-23T20:39:05.787Z,6.18
2023-01-23T20:41:32.704Z,5.65
2023-01-23T20:44:04.321Z,5.35
2023-01-23T20:49:02.157Z,4.93
2023-01-23T20:51:30.505Z,5.43
2023-01-23T20:53:57.516Z,5.18
2023-01-23T20:56:28.120Z,6.15
2023-01-23T20:59:15.904Z,6.43
2023-01-23T21:02:05.061Z,6.00
2023-01-23T21:04:36.634Z,5.88
2023-01-23T21:09:33.467Z,4.65
2023-01-23T21:12:02.615Z,5.38
2023-01-23T21:14:32.308Z,5.90
2023-01-23T21:17:01.921Z,5.05
2023-01-23T21:19:30.901Z,5.95
2023-01-23T21:21:58.011Z,5.78
2023-01-23T21:24:25.525Z,6.25
2023-01-23T21:26:53.189Z,5.22
2023-01-23T21:29:22.584Z,5.03
2023-01-23T21:31:49.572Z,5.57
2023-01-23T21:34:26.365Z,5.25
2023-01-23T21:36:53.875Z,5.85
2023-01-23T21:39:21.104Z,5.20
2023-01-23T21:41:50.366Z,5.40
2023-01-23T21:44:19.498Z,5.00
2023-01-23T21:46:50.987Z,4.70
2023-01-23T21:49:20.181Z,4.60
2023-01-23T21:51:50.069Z,5.65
2023-01-23T21:54:21.961Z,4.60
2023-01-23T21:56:51.112Z,5.50
2023-01-23T21:59:18.154Z,5.57
2023-01-23T22:01:46.460Z,4.60
2023-01-23T22:04:18.274Z,4.80
2023-01-23T22:06:46.879Z,5.20
2023-01-23T22:09:19.360Z,4.88
2023-01-23T22:11:52.224Z,5.50
2023-01-23T22:14:20.119Z,5.10
2023-01-23T22:16:51.099Z,5.25
2023-01-23T22:19:24.861Z,4.80
2023-01-23T22:21:58.582Z,4.85
2023-01-23T22:24:25.903Z,5.18
2023-01-23T22:26:52.792Z,5.30
2023-01-23T22:29:19.682Z,4.55
2023-01-23T22:31:48.878Z,4.47
2023-01-23T22:34:16.123Z,4.72
2023-01-23T22:36:43.307Z,4.72
2023-01-23T22:39:16.838Z,4.43
2023-01-23T22:41:50.339Z,4.82
2023-01-23T22:44:20.926Z,5.28
2023-01-23T22:46:53.468Z,4.68
2023-01-23T22:49:27.353Z,5.18
2023-01-23T22:51:54.429Z,5.15
2023-01-23T22:54:26.631Z,5.13
2023-01-23T22:56:53.614Z,5.40
2023-01-23T22:59:23.863Z,5.20
2023-01-23T23:01:50.816Z,5.22
2023-01-23T23:04:17.815Z,5.03
2023-01-23T23:06:44.749Z,4.40
2023-01-23T23:09:14.131Z,5.03
2023-01-23T23:11:50.073Z,4.72
2023-01-23T23:14:17.112Z,5.18
2023-01-23T23:16:49.075Z,5.10
2023-01-23T23:19:18.291Z,5.38
2023-01-23T23:21:45.386Z,4.88
2023-01-23T23:24:15.816Z,5.10
2023-01-23T23:26:45.016Z,4.95
2023-01-23T23:29:17.513Z,5.30
2023-01-23T23:31:44.531Z,4.95
2023-01-23T23:34:16.287Z,5.10
2023-01-23T23:36:45.618Z,4.45
2023-01-23T23:39:13.339Z,4.95
2023-01-23T23:41:42.717Z,5.22
2023-01-23T23:44:10.039Z,5.30
2023-01-23T23:46:36.951Z,5.53
2023-01-23T23:49:03.927Z,5.35
2023-01-23T23:51:31.066Z,5.63
2023-01-23T23:54:00.210Z,5.43
2023-01-23T23:56:32.116Z,5.00
2023-01-23T23:59:01.645Z,5.63
